Love Boat — OT3861 — position and weather

sailwx.info

Track history (hours):
 
Tides and Currents Weather Stations Pressure Air Temp Water Temp Dewpoint Dewpoint Depression Visibility Wind Speed Wind Dir Waves Ship Positions

Love Boat

Last reported at 2015-May-24 14:33 UTC. Time now 2015-May-24 21:21 UTC.
Position N 51°17' E 006°42'.

Length 110 m.

Type: Ship. MMSI: 205386190.

Date/timePositionNaut miles runAvg speedWind from/ knotsBaromVisibWave heightAir tempDewpointWater temp
2015-May-24 14:33N 51°17' E 006°42'6 5.8
2015-May-24 13:33N 51°11' E 006°44'6 5.5
2015-May-24 12:29N 51°07' E 006°52'14 6.9
2015-May-24 10:32N 50°55' E 006°59'  
2015-May-16 08:29N 50°49' E 007°01'2 2.4
2015-May-16 07:31N 50°51' E 007°01'2 2.2
2015-May-16 06:31N 50°54' E 007°01'4 3.7
2015-May-16 05:29N 50°57' E 006°59'11 3.4
2015-May-16 02:18N 51°07' E 006°52'3 3.4
2015-May-16 01:32N 51°10' E 006°51'2 1.8
2015-May-16 00:33N 51°10' E 006°48'3 3.4
2015-May-15 23:33N 51°13' E 006°44'2 2.3
2015-May-15 22:33N 51°14' E 006°46'19 3.1
2015-May-15 16:27N 51°33' E 006°41'22 3.7
2015-May-15 10:24N 51°49' E 006°16'18 4.6
2015-May-15 06:26N 51°53' E 005°47'14 5.0
2015-May-15 03:33N 51°50' E 005°24'4 4.0
2015-May-15 02:33N 51°49' E 005°18'  
Track history (hours):
 
Tides and Currents Weather Stations Pressure Air Temp Water Temp Dewpoint Dewpoint Depression Visibility Wind Speed Wind Dir Waves Ship Positions

Love Boat

Last reported at 2015-May-24 14:33 UTC. Time now 2015-May-24 21:21 UTC.
Position N 51°17' E 006°42'.

Length 110 m.

Type: Ship. MMSI: 205386190.

Date/timePositionNaut miles runAvg speedWind from/ knotsBaromVisibWave heightAir tempDewpointWater temp
2015-May-24 14:33N 51°17' E 006°42'6 5.8
2015-May-24 13:33N 51°11' E 006°44'6 5.5
2015-May-24 12:29N 51°07' E 006°52'14 6.9
2015-May-24 10:32N 50°55' E 006°59'  
2015-May-16 08:29N 50°49' E 007°01'2 2.4
2015-May-16 07:31N 50°51' E 007°01'2 2.2
2015-May-16 06:31N 50°54' E 007°01'4 3.7
2015-May-16 05:29N 50°57' E 006°59'11 3.4
2015-May-16 02:18N 51°07' E 006°52'3 3.4
2015-May-16 01:32N 51°10' E 006°51'2 1.8
2015-May-16 00:33N 51°10' E 006°48'3 3.4
2015-May-15 23:33N 51°13' E 006°44'2 2.3
2015-May-15 22:33N 51°14' E 006°46'19 3.1
2015-May-15 16:27N 51°33' E 006°41'22 3.7
2015-May-15 10:24N 51°49' E 006°16'18 4.6
2015-May-15 06:26N 51°53' E 005°47'14 5.0
2015-May-15 03:33N 51°50' E 005°24'4 4.0
2015-May-15 02:33N 51°49' E 005°18'  

Dump ship's entire track history